sensor_id;sensor_type;location;lat;lon;timestamp;pressure;altitude;pressure_sealevel;temperature
79053;BMP280;68451;49.510;6.026;2024-01-07T00:00:49;97686.75;;;2.75
79053;BMP280;68451;49.510;6.026;2024-01-07T00:03:16;97699.97;;;2.87
79053;BMP280;68451;49.510;6.026;2024-01-07T00:05:43;97725.94;;;3.00
79053;BMP280;68451;49.510;6.026;2024-01-07T00:08:10;97709.25;;;2.81
79053;BMP280;68451;49.510;6.026;2024-01-07T00:10:37;97729.41;;;2.92
79053;BMP280;68451;49.510;6.026;2024-01-07T00:13:03;97712.16;;;2.78
79053;BMP280;68451;49.510;6.026;2024-01-07T00:15:30;97683.91;;;2.55
79053;BMP280;68451;49.510;6.026;2024-01-07T00:17:58;97509.06;;;1.35
79053;BMP280;68451;49.510;6.026;2024-01-07T00:20:25;97511.53;;;1.28
79053;BMP280;68451;49.510;6.026;2024-01-07T00:22:51;97729.66;;;2.68
79053;BMP280;68451;49.510;6.026;2024-01-07T00:25:18;97659.19;;;2.17
79053;BMP280;68451;49.510;6.026;2024-01-07T00:27:45;97697.13;;;2.38
79053;BMP280;68451;49.510;6.026;2024-01-07T00:30:12;97723.88;;;2.51
79053;BMP280;68451;49.510;6.026;2024-01-07T00:32:39;97582.75;;;1.65
79053;BMP280;68451;49.510;6.026;2024-01-07T00:35:06;97648.63;;;2.12
79053;BMP280;68451;49.510;6.026;2024-01-07T00:37:33;97656.63;;;2.17
79053;BMP280;68451;49.510;6.026;2024-01-07T00:40:01;97729.47;;;2.55
79053;BMP280;68451;49.510;6.026;2024-01-07T00:42:28;97734.81;;;2.68
79053;BMP280;68451;49.510;6.026;2024-01-07T00:44:55;97601.16;;;1.77
79053;BMP280;68451;49.510;6.026;2024-01-07T00:47:22;97431.78;;;0.76
79053;BMP280;68451;49.510;6.026;2024-01-07T00:49:49;97697.56;;;2.41
79053;BMP280;68451;49.510;6.026;2024-01-07T00:52:16;97680.78;;;2.31
79053;BMP280;68451;49.510;6.026;2024-01-07T00:54:43;97704.59;;;2.47
79053;BMP280;68451;49.510;6.026;2024-01-07T00:57:12;97696.00;;;2.40
79053;BMP280;68451;49.510;6.026;2024-01-07T00:59:39;97730.75;;;2.59
79053;BMP280;68451;49.510;6.026;2024-01-07T01:02:06;97732.97;;;2.62
79053;BMP280;68451;49.510;6.026;2024-01-07T01:04:33;97732.78;;;2.63
79053;BMP280;68451;49.510;6.026;2024-01-07T01:07:00;97740.50;;;2.63
79053;BMP280;68451;49.510;6.026;2024-01-07T01:09:28;97735.19;;;2.65
79053;BMP280;68451;49.510;6.026;2024-01-07T01:11:55;97702.72;;;2.41
79053;BMP280;68451;49.510;6.026;2024-01-07T01:14:22;97743.72;;;2.65
79053;BMP280;68451;49.510;6.026;2024-01-07T01:16:49;97676.25;;;2.18
79053;BMP280;68451;49.510;6.026;2024-01-07T01:19:17;97751.19;;;2.60
79053;BMP280;68451;49.510;6.026;2024-01-07T01:21:44;97726.19;;;2.46
79053;BMP280;68451;49.510;6.026;2024-01-07T01:24:11;97725.59;;;2.44
79053;BMP280;68451;49.510;6.026;2024-01-07T01:26:39;97706.72;;;2.29
79053;BMP280;68451;49.510;6.026;2024-01-07T01:29:06;97690.97;;;2.24
79053;BMP280;68451;49.510;6.026;2024-01-07T01:31:33;97770.56;;;2.71
79053;BMP280;68451;49.510;6.026;2024-01-07T01:34:00;97576.84;;;1.42
79053;BMP280;68451;49.510;6.026;2024-01-07T01:36:27;97718.38;;;2.40
79053;BMP280;68451;49.510;6.026;2024-01-07T01:38:54;97759.19;;;2.65
79053;BMP280;68451;49.510;6.026;2024-01-07T01:41:20;97734.13;;;2.45
79053;BMP280;68451;49.510;6.026;2024-01-07T01:43:47;97758.56;;;2.63
79053;BMP280;68451;49.510;6.026;2024-01-07T01:46:14;97721.13;;;2.38
79053;BMP280;68451;49.510;6.026;2024-01-07T01:48:42;97699.50;;;2.24
79053;BMP280;68451;49.510;6.026;2024-01-07T01:51:10;97700.97;;;2.27
79053;BMP280;68451;49.510;6.026;2024-01-07T01:53:37;97767.56;;;2.67
79053;BMP280;68451;49.510;6.026;2024-01-07T01:56:04;97748.97;;;2.57
79053;BMP280;68451;49.510;6.026;2024-01-07T01:58:32;97757.50;;;2.58
79053;BMP280;68451;49.510;6.026;2024-01-07T02:00:59;97728.75;;;2.46
79053;BMP280;68451;49.510;6.026;2024-01-07T02:03:26;97774.75;;;2.72
79053;BMP280;68451;49.510;6.026;2024-01-07T02:05:53;97646.72;;;1.91
79053;BMP280;68451;49.510;6.026;2024-01-07T02:08:20;97791.19;;;2.86
79053;BMP280;68451;49.510;6.026;2024-01-07T02:10:47;97778.47;;;2.69
79053;BMP280;68451;49.510;6.026;2024-01-07T02:13:14;97747.81;;;2.45
79053;BMP280;68451;49.510;6.026;2024-01-07T02:15:43;97773.69;;;2.66
79053;BMP280;68451;49.510;6.026;2024-01-07T02:18:10;97601.19;;;1.54
79053;BMP280;68451;49.510;6.026;2024-01-07T02:20:37;97717.38;;;2.26
79053;BMP280;68451;49.510;6.026;2024-01-07T02:23:04;97792.00;;;2.72
79053;BMP280;68451;49.510;6.026;2024-01-07T02:25:37;97800.97;;;2.76
79053;BMP280;68451;49.510;6.026;2024-01-07T02:28:04;97801.44;;;2.79
79053;BMP280;68451;49.510;6.026;2024-01-07T02:30:31;97785.25;;;2.70
79053;BMP280;68451;49.510;6.026;2024-01-07T02:33:03;97738.53;;;2.36
79053;BMP280;68451;49.510;6.026;2024-01-07T02:35:31;97750.53;;;2.44
79053;BMP280;68451;49.510;6.026;2024-01-07T02:37:57;97601.03;;;1.56
79053;BMP280;68451;49.510;6.026;2024-01-07T02:40:24;97711.94;;;2.21
79053;BMP280;68451;49.510;6.026;2024-01-07T02:42:51;97712.59;;;2.23
79053;BMP280;68451;49.510;6.026;2024-01-07T02:45:18;97575.25;;;1.41
79053;BMP280;68451;49.510;6.026;2024-01-07T02:47:46;97742.53;;;2.39
79053;BMP280;68451;49.510;6.026;2024-01-07T02:50:13;97722.53;;;2.26
79053;BMP280;68451;49.510;6.026;2024-01-07T02:52:40;97613.59;;;1.51
79053;BMP280;68451;49.510;6.026;2024-01-07T02:55:07;97800.00;;;2.77
79053;BMP280;68451;49.510;6.026;2024-01-07T02:57:34;97727.59;;;2.34
79053;BMP280;68451;49.510;6.026;2024-01-07T03:00:01;97764.88;;;2.61
79053;BMP280;68451;49.510;6.026;2024-01-07T03:02:29;97773.41;;;2.61
79053;BMP280;68451;49.510;6.026;2024-01-07T03:04:56;97614.06;;;1.54
79053;BMP280;68451;49.510;6.026;2024-01-07T03:07:22;97797.97;;;2.72
79053;BMP280;68451;49.510;6.026;2024-01-07T03:09:49;97753.28;;;2.42
79053;BMP280;68451;49.510;6.026;2024-01-07T03:12:16;97665.88;;;1.89
79053;BMP280;68451;49.510;6.026;2024-01-07T03:14:43;97771.81;;;2.60
79053;BMP280;68451;49.510;6.026;2024-01-07T03:17:10;97773.56;;;2.60
79053;BMP280;68451;49.510;6.026;2024-01-07T03:19:38;97733.91;;;2.32
79053;BMP280;68451;49.510;6.026;2024-01-07T03:22:05;97782.47;;;2.57
79053;BMP280;68451;49.510;6.026;2024-01-07T03:24:33;97793.78;;;2.71
79053;BMP280;68451;49.510;6.026;2024-01-07T03:27:00;97563.81;;;1.21
79053;BMP280;68451;49.510;6.026;2024-01-07T03:29:27;97757.47;;;2.43
79053;BMP280;68451;49.510;6.026;2024-01-07T03:31:54;97807.63;;;2.70
79053;BMP280;68451;49.510;6.026;2024-01-07T03:34:21;97731.88;;;2.27
79053;BMP280;68451;49.510;6.026;2024-01-07T03:36:48;97790.19;;;2.57
79053;BMP280;68451;49.510;6.026;2024-01-07T03:39:14;97644.34;;;1.67
79053;BMP280;68451;49.510;6.026;2024-01-07T03:41:41;97587.75;;;1.21
79053;BMP280;68451;49.510;6.026;2024-01-07T03:44:08;97807.19;;;2.66
79053;BMP280;68451;49.510;6.026;2024-01-07T03:46:35;97728.28;;;2.13
79053;BMP280;68451;49.510;6.026;2024-01-07T03:49:02;97782.53;;;2.49
79053;BMP280;68451;49.510;6.026;2024-01-07T03:51:29;97788.84;;;2.47
79053;BMP280;68451;49.510;6.026;2024-01-07T03:53:56;97786.63;;;2.44
79053;BMP280;68451;49.510;6.026;2024-01-07T03:56:23;97807.88;;;2.60
79053;BMP280;68451;49.510;6.026;2024-01-07T03:58:49;97756.19;;;2.24
79053;BMP280;68451;49.510;6.026;2024-01-07T04:01:17;97714.63;;;1.90
79053;BMP280;68451;49.510;6.026;2024-01-07T04:03:44;97558.56;;;0.92
79053;BMP280;68451;49.510;6.026;2024-01-07T04:06:11;97801.56;;;2.48
79053;BMP280;68451;49.510;6.026;2024-01-07T04:08:38;97803.50;;;2.46
79053;BMP280;68451;49.510;6.026;2024-01-07T04:11:05;97820.59;;;2.62
79053;BMP280;68451;49.510;6.026;2024-01-07T04:13:32;97819.44;;;2.64
79053;BMP280;68451;49.510;6.026;2024-01-07T04:15:59;97738.81;;;2.04
79053;BMP280;68451;49.510;6.026;2024-01-07T04:18:26;97793.16;;;2.32
79053;BMP280;68451;49.510;6.026;2024-01-07T04:20:53;97808.47;;;2.48
79053;BMP280;68451;49.510;6.026;2024-01-07T04:23:19;97788.69;;;2.25
79053;BMP280;68451;49.510;6.026;2024-01-07T04:25:46;97814.59;;;2.47
79053;BMP280;68451;49.510;6.026;2024-01-07T04:28:13;97754.66;;;2.15
79053;BMP280;68451;49.510;6.026;2024-01-07T04:30:40;97684.53;;;1.68
79053;BMP280;68451;49.510;6.026;2024-01-07T04:33:07;97813.19;;;2.44
79053;BMP280;68451;49.510;6.026;2024-01-07T04:35:34;97814.16;;;2.43
79053;BMP280;68451;49.510;6.026;2024-01-07T04:38:02;97834.97;;;2.56
79053;BMP280;68451;49.510;6.026;2024-01-07T04:40:29;97797.50;;;2.31
79053;BMP280;68451;49.510;6.026;2024-01-07T04:42:55;97692.50;;;1.58
79053;BMP280;68451;49.510;6.026;2024-01-07T04:45:22;97792.69;;;2.28
79053;BMP280;68451;49.510;6.026;2024-01-07T04:47:49;97737.88;;;1.97
79053;BMP280;68451;49.510;6.026;2024-01-07T04:50:16;97800.41;;;2.28
79053;BMP280;68451;49.510;6.026;2024-01-07T04:52:46;97809.31;;;2.25
79053;BMP280;68451;49.510;6.026;2024-01-07T04:55:13;97858.97;;;2.57
79053;BMP280;68451;49.510;6.026;2024-01-07T04:57:40;97855.75;;;2.55
79053;BMP280;68451;49.510;6.026;2024-01-07T05:00:07;97820.78;;;2.38
79053;BMP280;68451;49.510;6.026;2024-01-07T05:02:34;97830.88;;;2.47
79053;BMP280;68451;49.510;6.026;2024-01-07T05:05:02;97818.84;;;2.40
79053;BMP280;68451;49.510;6.026;2024-01-07T05:07:29;97344.53;;;-0.62
79053;BMP280;68451;49.510;6.026;2024-01-07T05:09:56;97340.06;;;-0.60
79053;BMP280;68451;49.510;6.026;2024-01-07T05:12:23;97860.59;;;2.58
79053;BMP280;68451;49.510;6.026;2024-01-07T05:14:52;97836.09;;;2.39
79053;BMP280;68451;49.510;6.026;2024-01-07T05:17:19;97846.69;;;2.44
79053;BMP280;68451;49.510;6.026;2024-01-07T05:19:46;97814.31;;;2.19
79053;BMP280;68451;49.510;6.026;2024-01-07T05:22:13;97803.94;;;2.12
79053;BMP280;68451;49.510;6.026;2024-01-07T05:24:40;97825.91;;;2.23
79053;BMP280;68451;49.510;6.026;2024-01-07T05:27:07;97868.78;;;2.39
79053;BMP280;68451;49.510;6.026;2024-01-07T05:29:34;97839.31;;;2.18
79053;BMP280;68451;49.510;6.026;2024-01-07T05:32:01;97893.66;;;2.54
79053;BMP280;68451;49.510;6.026;2024-01-07T05:34:29;97704.88;;;1.32
79053;BMP280;68451;49.510;6.026;2024-01-07T05:36:56;97894.41;;;2.55
79053;BMP280;68451;49.510;6.026;2024-01-07T05:39:23;97898.97;;;2.53
79053;BMP280;68451;49.510;6.026;2024-01-07T05:41:51;97884.25;;;2.39
79053;BMP280;68451;49.510;6.026;2024-01-07T05:44:17;97894.94;;;2.50
79053;BMP280;68451;49.510;6.026;2024-01-07T05:46:44;97891.22;;;2.53
79053;BMP280;68451;49.510;6.026;2024-01-07T05:49:11;97801.13;;;1.99
79053;BMP280;68451;49.510;6.026;2024-01-07T05:51:41;97888.19;;;2.49
79053;BMP280;68451;49.510;6.026;2024-01-07T05:54:08;97901.25;;;2.48
79053;BMP280;68451;49.510;6.026;2024-01-07T05:56:39;97841.81;;;2.04
79053;BMP280;68451;49.510;6.026;2024-01-07T05:59:07;97630.63;;;0.67
79053;BMP280;68451;49.510;6.026;2024-01-07T06:01:34;97853.53;;;2.06
79053;BMP280;68451;49.510;6.026;2024-01-07T06:04:02;97812.91;;;1.94
79053;BMP280;68451;49.510;6.026;2024-01-07T06:06:29;97837.91;;;2.08
79053;BMP280;68451;49.510;6.026;2024-01-07T06:08:56;97902.28;;;2.39
79053;BMP280;68451;49.510;6.026;2024-01-07T06:11:23;97836.72;;;1.96
79053;BMP280;68451;49.510;6.026;2024-01-07T06:13:50;97898.28;;;2.36
79053;BMP280;68451;49.510;6.026;2024-01-07T06:16:17;97681.28;;;0.98
79053;BMP280;68451;49.510;6.026;2024-01-07T06:18:44;97897.47;;;2.36
79053;BMP280;68451;49.510;6.026;2024-01-07T06:21:11;97795.31;;;1.74
79053;BMP280;68451;49.510;6.026;2024-01-07T06:23:38;97812.16;;;1.85
79053;BMP280;68451;49.510;6.026;2024-01-07T06:26:05;97837.34;;;1.98
79053;BMP280;68451;49.510;6.026;2024-01-07T06:28:32;97751.06;;;1.48
79053;BMP280;68451;49.510;6.026;2024-01-07T06:31:02;97770.34;;;1.52
79053;BMP280;68451;49.510;6.026;2024-01-07T06:33:30;97572.22;;;0.30
79053;BMP280;68451;49.510;6.026;2024-01-07T06:35:57;97843.50;;;1.89
79053;BMP280;68451;49.510;6.026;2024-01-07T06:38:23;97935.84;;;2.53
79053;BMP280;68451;49.510;6.026;2024-01-07T06:40:50;97939.22;;;2.54
79053;BMP280;68451;49.510;6.026;2024-01-07T06:43:17;97860.22;;;1.93
79053;BMP280;68451;49.510;6.026;2024-01-07T06:45:45;97770.75;;;1.41
79053;BMP280;68451;49.510;6.026;2024-01-07T06:48:12;97768.81;;;1.35
79053;BMP280;68451;49.510;6.026;2024-01-07T06:50:39;97926.31;;;2.31
79053;BMP280;68451;49.510;6.026;2024-01-07T06:53:06;97907.41;;;2.16
79053;BMP280;68451;49.510;6.026;2024-01-07T06:55:32;97917.53;;;2.17
79053;BMP280;68451;49.510;6.026;2024-01-07T06:57:59;97937.13;;;2.27
79053;BMP280;68451;49.510;6.026;2024-01-07T07:00:26;97931.53;;;2.15
79053;BMP280;68451;49.510;6.026;2024-01-07T07:02:54;97940.50;;;2.27
79053;BMP280;68451;49.510;6.026;2024-01-07T07:05:20;97824.38;;;1.60
79053;BMP280;68451;49.510;6.026;2024-01-07T07:07:47;97726.09;;;0.95
79053;BMP280;68451;49.510;6.026;2024-01-07T07:10:17;97912.44;;;2.09
79053;BMP280;68451;49.510;6.026;2024-01-07T07:12:44;97972.94;;;2.44
79053;BMP280;68451;49.510;6.026;2024-01-07T07:15:11;97821.50;;;1.55
79053;BMP280;68451;49.510;6.026;2024-01-07T07:17:38;97936.38;;;2.18
79053;BMP280;68451;49.510;6.026;2024-01-07T07:20:06;97925.03;;;2.04
79053;BMP280;68451;49.510;6.026;2024-01-07T07:22:33;97962.03;;;2.34
79053;BMP280;68451;49.510;6.026;2024-01-07T07:25:00;97964.78;;;2.33
79053;BMP280;68451;49.510;6.026;2024-01-07T07:27:28;97933.50;;;2.13
79053;BMP280;68451;49.510;6.026;2024-01-07T07:29:55;97958.97;;;2.39
79053;BMP280;68451;49.510;6.026;2024-01-07T07:32:23;97948.97;;;2.13
79053;BMP280;68451;49.510;6.026;2024-01-07T07:34:50;97948.00;;;2.14
79053;BMP280;68451;49.510;6.026;2024-01-07T07:37:17;97938.19;;;2.09
79053;BMP280;68451;49.510;6.026;2024-01-07T07:39:47;97972.84;;;2.30
79053;BMP280;68451;49.510;6.026;2024-01-07T07:42:13;97933.56;;;1.97
79053;BMP280;68451;49.510;6.026;2024-01-07T07:44:40;97986.41;;;2.23
79053;BMP280;68451;49.510;6.026;2024-01-07T07:47:08;97961.38;;;2.09
79053;BMP280;68451;49.510;6.026;2024-01-07T07:49:38;97857.69;;;1.46
79053;BMP280;68451;49.510;6.026;2024-01-07T07:52:07;97958.81;;;2.09
79053;BMP280;68451;49.510;6.026;2024-01-07T07:54:38;97977.91;;;2.15
79053;BMP280;68451;49.510;6.026;2024-01-07T07:57:05;97948.19;;;2.04
79053;BMP280;68451;49.510;6.026;2024-01-07T07:59:32;97909.31;;;1.83
79053;BMP280;68451;49.510;6.026;2024-01-07T08:01:59;97982.41;;;2.21
79053;BMP280;68451;49.510;6.026;2024-01-07T08:04:26;97970.53;;;2.12
79053;BMP280;68451;49.510;6.026;2024-01-07T08:06:53;97988.16;;;2.31
79053;BMP280;68451;49.510;6.026;2024-01-07T08:09:23;97999.84;;;2.42
79053;BMP280;68451;49.510;6.026;2024-01-07T08:11:52;97808.44;;;1.18
79053;BMP280;68451;49.510;6.026;2024-01-07T08:14:19;98010.94;;;2.42
79053;BMP280;68451;49.510;6.026;2024-01-07T08:16:45;97937.78;;;1.90
79053;BMP280;68451;49.510;6.026;2024-01-07T08:19:12;97959.13;;;2.06
79053;BMP280;68451;49.510;6.026;2024-01-07T08:21:40;98041.22;;;2.48
79053;BMP280;68451;49.510;6.026;2024-01-07T08:24:07;98043.63;;;2.50
79053;BMP280;68451;49.510;6.026;2024-01-07T08:26:34;97913.75;;;1.66
79053;BMP280;68451;49.510;6.026;2024-01-07T08:29:01;98006.69;;;2.27
79053;BMP280;68451;49.510;6.026;2024-01-07T08:31:28;98033.47;;;2.48
79053;BMP280;68451;49.510;6.026;2024-01-07T08:33:55;98020.94;;;2.45
79053;BMP280;68451;49.510;6.026;2024-01-07T08:36:22;97929.75;;;1.85
79053;BMP280;68451;49.510;6.026;2024-01-07T08:38:49;98030.09;;;2.48
79053;BMP280;68451;49.510;6.026;2024-01-07T08:41:16;98022.22;;;2.41
79053;BMP280;68451;49.510;6.026;2024-01-07T08:43:43;97865.25;;;1.47
79053;BMP280;68451;49.510;6.026;2024-01-07T08:46:11;97992.69;;;2.21
79053;BMP280;68451;49.510;6.026;2024-01-07T08:48:40;98020.94;;;2.37
79053;BMP280;68451;49.510;6.026;2024-01-07T08:51:07;98047.13;;;2.57
79053;BMP280;68451;49.510;6.026;2024-01-07T08:53:35;97988.19;;;2.23
79053;BMP280;68451;49.510;6.026;2024-01-07T08:56:01;97886.31;;;1.51
79053;BMP280;68451;49.510;6.026;2024-01-07T08:58:28;98030.56;;;2.51
79053;BMP280;68451;49.510;6.026;2024-01-07T09:00:55;98057.53;;;2.63
79053;BMP280;68451;49.510;6.026;2024-01-07T09:03:22;98047.06;;;2.65
79053;BMP280;68451;49.510;6.026;2024-01-07T09:05:49;98054.97;;;2.63
79053;BMP280;68451;49.510;6.026;2024-01-07T09:08:16;98051.78;;;2.61
79053;BMP280;68451;49.510;6.026;2024-01-07T09:10:43;98061.22;;;2.69
79053;BMP280;68451;49.510;6.026;2024-01-07T09:13:10;97776.38;;;0.89
79053;BMP280;68451;49.510;6.026;2024-01-07T09:15:37;98052.56;;;2.62
79053;BMP280;68451;49.510;6.026;2024-01-07T09:18:05;98036.66;;;2.50
79053;BMP280;68451;49.510;6.026;2024-01-07T09:20:32;98049.25;;;2.53
79053;BMP280;68451;49.510;6.026;2024-01-07T09:23:00;98074.56;;;2.72
79053;BMP280;68451;49.510;6.026;2024-01-07T09:25:27;98018.38;;;2.37
79053;BMP280;68451;49.510;6.026;2024-01-07T09:27:57;98053.03;;;2.65
79053;BMP280;68451;49.510;6.026;2024-01-07T09:30:23;97999.25;;;2.32
79053;BMP280;68451;49.510;6.026;2024-01-07T09:32:50;98054.19;;;2.63
79053;BMP280;68451;49.510;6.026;2024-01-07T09:35:17;98075.63;;;2.86
79053;BMP280;68451;49.510;6.026;2024-01-07T09:37:44;98065.06;;;2.73
79053;BMP280;68451;49.510;6.026;2024-01-07T09:40:11;98054.47;;;2.68
79053;BMP280;68451;49.510;6.026;2024-01-07T09:42:39;98063.59;;;2.79
79053;BMP280;68451;49.510;6.026;2024-01-07T09:45:06;98077.25;;;2.87
79053;BMP280;68451;49.510;6.026;2024-01-07T09:47:34;98076.13;;;2.90
79053;BMP280;68451;49.510;6.026;2024-01-07T09:50:02;98090.22;;;3.02
79053;BMP280;68451;49.510;6.026;2024-01-07T09:52:29;97881.56;;;1.70
79053;BMP280;68451;49.510;6.026;2024-01-07T09:55:03;97931.97;;;1.96
79053;BMP280;68451;49.510;6.026;2024-01-07T09:57:33;97975.59;;;2.28
79053;BMP280;68451;49.510;6.026;2024-01-07T10:00:01;98121.72;;;3.20
79053;BMP280;68451;49.510;6.026;2024-01-07T10:02:28;98102.25;;;3.09
79053;BMP280;68451;49.510;6.026;2024-01-07T10:04:55;98109.63;;;3.21
79053;BMP280;68451;49.510;6.026;2024-01-07T10:07:22;98123.28;;;3.29
79053;BMP280;68451;49.510;6.026;2024-01-07T10:09:49;98082.84;;;2.99
79053;BMP280;68451;49.510;6.026;2024-01-07T10:12:16;98122.47;;;3.29
79053;BMP280;68451;49.510;6.026;2024-01-07T10:14:42;98088.09;;;3.05
79053;BMP280;68451;49.510;6.026;2024-01-07T10:17:16;98060.97;;;2.87
79053;BMP280;68451;49.510;6.026;2024-01-07T10:19:44;98093.41;;;3.04
79053;BMP280;68451;49.510;6.026;2024-01-07T10:22:13;98131.53;;;3.25
79053;BMP280;68451;49.510;6.026;2024-01-07T10:24:42;98095.03;;;3.05
79053;BMP280;68451;49.510;6.026;2024-01-07T10:27:10;98114.47;;;3.15
79053;BMP280;68451;49.510;6.026;2024-01-07T10:29:37;98082.53;;;2.94
79053;BMP280;68451;49.510;6.026;2024-01-07T10:32:05;97985.44;;;2.24
79053;BMP280;68451;49.510;6.026;2024-01-07T10:34:34;98119.22;;;3.04
79053;BMP280;68451;49.510;6.026;2024-01-07T10:37:03;98071.53;;;2.69
79053;BMP280;68451;49.510;6.026;2024-01-07T10:39:32;98066.22;;;2.70
79053;BMP280;68451;49.510;6.026;2024-01-07T10:41:59;98111.81;;;3.01
79053;BMP280;68451;49.510;6.026;2024-01-07T10:44:28;98136.75;;;3.17
79053;BMP280;68451;49.510;6.026;2024-01-07T10:46:56;98076.66;;;2.77
79053;BMP280;68451;49.510;6.026;2024-01-07T10:49:25;98083.59;;;2.77
79053;BMP280;68451;49.510;6.026;2024-01-07T10:52:06;97971.88;;;2.00
79053;BMP280;68451;49.510;6.026;2024-01-07T10:54:35;98129.53;;;3.04
79053;BMP280;68451;49.510;6.026;2024-01-07T10:57:38;97925.31;;;1.78
79053;BMP280;68451;49.510;6.026;2024-01-07T11:00:10;98103.50;;;2.91
79053;BMP280;68451;49.510;6.026;2024-01-07T11:03:17;97993.97;;;2.25
79053;BMP280;68451;49.510;6.026;2024-01-07T11:05:47;98149.66;;;3.08
79053;BMP280;68451;49.510;6.026;2024-01-07T11:08:21;98076.41;;;2.64
79053;BMP280;68451;49.510;6.026;2024-01-07T11:10:55;98081.75;;;2.62
79053;BMP280;68451;49.510;6.026;2024-01-07T11:13:34;98121.94;;;2.80
79053;BMP280;68451;49.510;6.026;2024-01-07T11:16:02;98076.63;;;2.54
79053;BMP280;68451;49.510;6.026;2024-01-07T11:18:31;98104.25;;;2.68
79053;BMP280;68451;49.510;6.026;2024-01-07T11:21:01;98149.53;;;3.02
79053;BMP280;68451;49.510;6.026;2024-01-07T11:23:35;98155.06;;;2.99
79053;BMP280;68451;49.510;6.026;2024-01-07T11:26:06;98117.47;;;2.65
79053;BMP280;68451;49.510;6.026;2024-01-07T11:31:17;98110.72;;;2.64
79053;BMP280;68451;49.510;6.026;2024-01-07T11:33:53;98094.66;;;2.54
79053;BMP280;68451;49.510;6.026;2024-01-07T11:36:21;98139.28;;;2.86
79053;BMP280;68451;49.510;6.026;2024-01-07T11:38:49;98143.63;;;2.93
79053;BMP280;68451;49.510;6.026;2024-01-07T11:41:21;98124.56;;;2.72
79053;BMP280;68451;49.510;6.026;2024-01-07T11:43:55;98009.50;;;2.09
79053;BMP280;68451;49.510;6.026;2024-01-07T11:46:23;98140.88;;;2.95
79053;BMP280;68451;49.510;6.026;2024-01-07T11:48:52;98138.47;;;2.93
79053;BMP280;68451;49.510;6.026;2024-01-07T11:51:20;98140.25;;;2.93
79053;BMP280;68451;49.510;6.026;2024-01-07T11:53:47;98127.50;;;2.91
79053;BMP280;68451;49.510;6.026;2024-01-07T11:56:14;97957.09;;;1.94
79053;BMP280;68451;49.510;6.026;2024-01-07T11:58:41;98151.22;;;3.17
79053;BMP280;68451;49.510;6.026;2024-01-07T12:01:08;98149.63;;;3.17
79053;BMP280;68451;49.510;6.026;2024-01-07T12:03:36;98122.78;;;3.03
79053;BMP280;68451;49.510;6.026;2024-01-07T12:06:04;98096.50;;;2.77
79053;BMP280;68451;49.510;6.026;2024-01-07T12:08:31;98114.63;;;2.91
79053;BMP280;68451;49.510;6.026;2024-01-07T12:10:59;98137.31;;;2.96
79053;BMP280;68451;49.510;6.026;2024-01-07T12:13:27;98123.16;;;2.92
79053;BMP280;68451;49.510;6.026;2024-01-07T12:15:54;98122.19;;;2.93
79053;BMP280;68451;49.510;6.026;2024-01-07T12:18:21;98101.41;;;2.86
79053;BMP280;68451;49.510;6.026;2024-01-07T12:20:57;98096.75;;;2.90
79053;BMP280;68451;49.510;6.026;2024-01-07T12:23:25;98029.94;;;2.49
79053;BMP280;68451;49.510;6.026;2024-01-07T12:25:53;98136.91;;;3.15
79053;BMP280;68451;49.510;6.026;2024-01-07T12:28:20;98121.38;;;2.92
79053;BMP280;68451;49.510;6.026;2024-01-07T12:30:48;98118.81;;;2.92
79053;BMP280;68451;49.510;6.026;2024-01-07T12:33:17;98129.28;;;2.91
79053;BMP280;68451;49.510;6.026;2024-01-07T12:35:46;98114.81;;;2.90
79053;BMP280;68451;49.510;6.026;2024-01-07T12:38:14;98157.09;;;3.11
79053;BMP280;68451;49.510;6.026;2024-01-07T12:40:41;98152.22;;;3.17
79053;BMP280;68451;49.510;6.026;2024-01-07T12:43:08;98101.31;;;2.80
79053;BMP280;68451;49.510;6.026;2024-01-07T12:45:35;98145.50;;;3.07
79053;BMP280;68451;49.510;6.026;2024-01-07T12:48:02;98087.50;;;2.64
79053;BMP280;68451;49.510;6.026;2024-01-07T12:50:29;98129.94;;;2.93
79053;BMP280;68451;49.510;6.026;2024-01-07T12:52:58;98133.47;;;2.92
79053;BMP280;68451;49.510;6.026;2024-01-07T12:55:26;98129.66;;;2.80
79053;BMP280;68451;49.510;6.026;2024-01-07T12:57:53;98129.22;;;2.76
79053;BMP280;68451;49.510;6.026;2024-01-07T13:00:21;98142.22;;;2.83
79053;BMP280;68451;49.510;6.026;2024-01-07T13:02:48;98148.19;;;2.83
79053;BMP280;68451;49.510;6.026;2024-01-07T13:05:15;98024.00;;;2.02
79053;BMP280;68451;49.510;6.026;2024-01-07T13:07:43;97972.31;;;1.56
79053;BMP280;68451;49.510;6.026;2024-01-07T13:10:10;98145.19;;;2.63
79053;BMP280;68451;49.510;6.026;2024-01-07T13:12:37;98154.22;;;2.59
79053;BMP280;68451;49.510;6.026;2024-01-07T13:15:14;98073.38;;;2.13
79053;BMP280;68451;49.510;6.026;2024-01-07T13:17:43;98153.25;;;2.60
79053;BMP280;68451;49.510;6.026;2024-01-07T13:20:10;98170.16;;;2.71
79053;BMP280;68451;49.510;6.026;2024-01-07T13:22:38;98156.03;;;2.51
79053;BMP280;68451;49.510;6.026;2024-01-07T13:25:06;98171.94;;;2.70
79053;BMP280;68451;49.510;6.026;2024-01-07T13:27:33;98156.16;;;2.65
79053;BMP280;68451;49.510;6.026;2024-01-07T13:30:04;98191.25;;;2.75
79053;BMP280;68451;49.510;6.026;2024-01-07T13:32:31;98181.75;;;2.75
79053;BMP280;68451;49.510;6.026;2024-01-07T13:35:04;98185.13;;;2.76
79053;BMP280;68451;49.510;6.026;2024-01-07T13:37:31;98115.78;;;2.42
79053;BMP280;68451;49.510;6.026;2024-01-07T13:39:58;98165.81;;;2.72
79053;BMP280;68451;49.510;6.026;2024-01-07T13:42:25;98082.41;;;2.09
79053;BMP280;68451;49.510;6.026;2024-01-07T13:44:52;97864.47;;;0.75
79053;BMP280;68451;49.510;6.026;2024-01-07T13:47:19;98186.44;;;2.72
79053;BMP280;68451;49.510;6.026;2024-01-07T13:49:46;98145.25;;;2.47
79053;BMP280;68451;49.510;6.026;2024-01-07T13:52:13;98123.75;;;2.32
79053;BMP280;68451;49.510;6.026;2024-01-07T13:54:41;98178.91;;;2.54
79053;BMP280;68451;49.510;6.026;2024-01-07T13:57:09;98159.75;;;2.48
79053;BMP280;68451;49.510;6.026;2024-01-07T13:59:36;98196.59;;;2.65
79053;BMP280;68451;49.510;6.026;2024-01-07T14:02:02;98152.06;;;2.40
79053;BMP280;68451;49.510;6.026;2024-01-07T14:04:31;98161.06;;;2.36
79053;BMP280;68451;49.510;6.026;2024-01-07T14:06:58;98208.97;;;2.69
79053;BMP280;68451;49.510;6.026;2024-01-07T14:09:26;98164.59;;;2.43
79053;BMP280;68451;49.510;6.026;2024-01-07T14:11:53;98048.25;;;1.60
79053;BMP280;68451;49.510;6.026;2024-01-07T14:14:19;98191.94;;;2.52
79053;BMP280;68451;49.510;6.026;2024-01-07T14:16:46;98178.63;;;2.41
79053;BMP280;68451;49.510;6.026;2024-01-07T14:19:13;98223.31;;;2.72
79053;BMP280;68451;49.510;6.026;2024-01-07T14:21:43;98148.06;;;2.21
79053;BMP280;68451;49.510;6.026;2024-01-07T14:24:10;98187.78;;;2.43
79053;BMP280;68451;49.510;6.026;2024-01-07T14:26:37;98222.88;;;2.52